WS64 weather

Schiffmann Seaplane Base
St Germain, Wisconsin, United States

Public forecast

Using degrees Fahrenheit for public forecast. Weather courtesy of forecast.io.

Closest aviation weather report (METAR) to Schiffmann Seaplane Base

Closest report is Lakeland-Noble F. Lee Memorial field, 8.6 nm (15.9 km) WNW. Retrieved 2019/10/14 02:35 UTC (17 minutes ago):

KARV 140235Z AUTO 25006KT 10SM BKN006 OVC010 03/01 A2978 RMK AO2 T00250011

Closest aviation forecast (TAF) to Schiffmann Seaplane Base

Forecast is more than 6 hours old.

Closest forecast is Rhinelander Oneida County Airport, 15.7 nm (29.0 km) S. Retrieved 2019/10/13 18:22 UTC (9 hours ago):

TAF KRHI 131720Z 1318/1418 26012G20KT P6SM VCSH BKN018 TEMPO 1318/1322 2SM -SHSN BKN009 FM132300 27009G14KT P6SM VCSH BKN028 FM140300 27008KT P6SM BKN022 FM140900 28007KT P6SM BKN018 FM141600 26009G15KT P6SM BKN025